Portada
METAR-TAF:

METAR-TAF

Aeroports :

Dakar, Senegal

latitud: 14-44N, longitud: 017-30W, altitud: 27 m

Observació

L'informe es va fer fa 29 minuts, a les 23:00 UTC
Vent 4 kt del Sud-Oest, variant entre Sud i Oest/Sud-Oest
Temperatura 28°C
Humitat 79%
Pressió 1015 hPa
Visibilitat 10 km o més
sense núvols per sota de 1500 mi sense presència de cumulonimbus.

METAR: GOOY 232300Z 22004KT 170V250 CAVOK 28/24 Q1015

Hora: 23:29 (23:29 UTC)

Pronòstic

L'informe es va fer fa 6 hores i 29 minuts, a les 17:00 UTC
Pronòstic vàlid del 23 a les 18 UTC al 24 a les 24 UTC
Vent 8 kt del Oest/Sud-Oest
Visibilitat 10 km o més
Núvols disperses a una alçada de 1300 ft
Probabilitat 40% :
Temporalment
l' 24 a les 02 UTC al 24 a les 08 UTC
Visibilitat: 4000 m
Cel ennuvolat a una alçada de 1000 ft
Escasses núvols a una alçada de 3000 ft, Cumulonimbus.
tempesta, pluja,

TAF: GOOY 231700Z 2318/2424 24008KT 9999 SCT013 PROB40 TEMPO 2402/2408 4000 TSRA BKN010 FEW030CB

Observacions i pronòstics meteorològics de més de 4000 aeroports (METAR i TAF).

Les estacions disponibles són els punts grocs i vermells al mapa.

Posi el ratolí al punt desitjat per veure el nom de l'estació.

Feu clic per veure les observacions i els pronòstics meteorològics.

Per canviar el mapa: feu clic els botons verds amb una creu de color negre per apropar; al botó verd amb un guió per allunyar la imatge; o en les fletxes verdes per a mapes adjacents.


METAR-TAF: